Time;durP1;ratioP1;P1;durP2;ratioP2;P2;SDS_P1;SDS_P2;PMS_P1;PMS_P2;Temp;Humidity;BMP_temperature;BMP_pressure;BME280_temperature;BME280_humidity;BME280_pressure;Samples;Min_cycle;Max_cycle;Signal;HPM_P1;HPM_P2
2021/12/08 00:02:15;;;;;;;33.13;18.25;;;6.30;99.90;;;;;;5114048;28;20044;-71
2021/12/08 00:04:41;;;;;;;28.08;14.80;;;6.40;99.90;;;;;;5114375;28;20031;-71
2021/12/08 00:07:08;;;;;;;83.95;38.10;;;6.40;99.90;;;;;;5115458;28;20039;-71
2021/12/08 00:15:05;;;;;;;34.75;19.88;;;6.50;99.90;;;;;;5115282;28;20088;-71
2021/12/08 00:17:31;;;;;;;36.17;19.08;;;6.40;99.90;;;;;;5114854;28;20043;-71
2021/12/08 00:20:01;;;;;;;33.45;18.95;;;6.40;99.90;;;;;;5115835;28;20122;-71
2021/12/08 00:22:27;;;;;;;33.75;17.23;;;6.40;99.90;;;;;;5114905;28;20363;-71
2021/12/08 00:24:53;;;;;;;41.38;21.98;;;6.40;99.90;;;;;;5114822;28;20065;-71
2021/12/08 00:27:19;;;;;;;32.00;18.45;;;6.40;99.90;;;;;;5115121;28;20075;-71
2021/12/08 00:29:45;;;;;;;24.95;12.48;;;6.40;99.90;;;;;;5115439;28;20494;-71
2021/12/08 00:32:11;;;;;;;22.15;12.70;;;6.40;99.90;;;;;;5114966;28;20040;-71
2021/12/08 00:34:38;;;;;;;24.52;13.18;;;6.40;99.90;;;;;;5114777;28;20035;-71
2021/12/08 00:37:05;;;;;;;28.52;14.20;;;6.40;99.90;;;;;;5114711;28;20078;-71
2021/12/08 00:39:32;;;;;;;89.35;45.85;;;6.30;99.90;;;;;;5117459;28;20463;-72
2021/12/08 00:41:59;;;;;;;29.52;16.02;;;6.30;99.90;;;;;;5118972;28;20032;-71
2021/12/08 00:44:26;;;;;;;21.15;12.18;;;6.40;99.90;;;;;;5119429;28;20047;-71
2021/12/08 00:46:52;;;;;;;20.52;12.27;;;6.40;99.90;;;;;;5119013;28;20071;-71
2021/12/08 00:49:17;;;;;;;19.10;11.23;;;6.40;99.90;;;;;;5119638;28;20050;-71
2021/12/08 00:51:44;;;;;;;20.92;11.20;;;6.30;99.90;;;;;;5119068;28;20043;-71
2021/12/08 00:54:10;;;;;;;14.30;9.05;;;6.30;99.90;;;;;;5119068;28;20040;-71
2021/12/08 00:56:35;;;;;;;13.57;8.43;;;6.30;99.90;;;;;;5118961;28;20040;-71
2021/12/08 00:59:01;;;;;;;13.07;8.18;;;6.30;99.90;;;;;;5119488;28;20043;-71
2021/12/08 01:01:28;;;;;;;13.27;7.30;;;6.40;99.90;;;;;;5118913;28;20031;-71
2021/12/08 01:03:54;;;;;;;10.40;4.53;;;6.30;99.90;;;;;;5118378;28;20406;-71
2021/12/08 01:06:20;;;;;;;9.60;5.43;;;6.40;99.90;;;;;;5118100;28;20055;-71
2021/12/08 01:08:46;;;;;;;10.85;6.25;;;6.40;99.90;;;;;;5118939;28;20032;-71
2021/12/08 01:11:19;;;;;;;17.75;8.50;;;6.40;99.90;;;;;;5118333;28;20031;-71
2021/12/08 01:13:45;;;;;;;14.27;7.63;;;6.30;99.90;;;;;;5118351;28;20104;-71
2021/12/08 01:16:21;;;;;;;13.15;6.82;;;6.40;99.90;;;;;;5118239;28;20536;-71
2021/12/08 01:18:47;;;;;;;10.93;6.47;;;6.40;99.90;;;;;;5118262;28;20063;-71
2021/12/08 01:21:13;;;;;;;10.75;6.22;;;6.50;99.90;;;;;;5118254;28;20142;-71
2021/12/08 01:23:40;;;;;;;7.53;2.78;;;6.50;99.90;;;;;;5117864;28;20028;-71
2021/12/08 01:26:08;;;;;;;4.00;2.63;;;6.60;99.90;;;;;;5117928;28;20130;-71
2021/12/08 01:28:34;;;;;;;5.43;3.05;;;6.60;99.90;;;;;;5118438;28;20562;-71
2021/12/08 01:31:01;;;;;;;4.95;3.22;;;6.60;99.90;;;;;;5117754;28;20397;-71
2021/12/08 01:33:33;;;;;;;5.60;1.70;;;6.60;99.90;;;;;;5117793;28;20047;-71
2021/12/08 01:36:02;;;;;;;3.22;1.55;;;6.70;99.90;;;;;;5117868;28;20042;-71
2021/12/08 01:38:34;;;;;;;4.32;1.85;;;6.80;99.90;;;;;;5117600;28;20060;-70
2021/12/08 01:41:00;;;;;;;4.22;1.73;;;6.80;99.90;;;;;;5117827;28;20050;-71
2021/12/08 01:43:28;;;;;;;3.25;1.70;;;6.80;99.90;;;;;;5117512;28;20059;-71
2021/12/08 01:46:06;;;;;;;3.47;1.40;;;6.70;99.90;;;;;;5117392;28;20475;-71
2021/12/08 01:48:35;;;;;;;4.07;1.45;;;6.70;99.90;;;;;;5117587;28;20122;-71
2021/12/08 01:51:10;;;;;;;2.80;1.40;;;6.70;99.90;;;;;;5116486;28;20368;-71
2021/12/08 01:53:40;;;;;;;1.63;1.20;;;6.70;99.90;;;;;;5117307;27;20490;-71
2021/12/08 01:56:09;;;;;;;3.35;1.00;;;6.70;99.90;;;;;;5117304;28;20031;-71
2021/12/08 01:58:35;;;;;;;2.92;1.42;;;6.70;99.90;;;;;;5116638;28;20074;-71
2021/12/08 02:01:08;;;;;;;4.80;1.88;;;6.70;99.90;;;;;;5117831;28;20084;-71
2021/12/08 02:03:35;;;;;;;3.55;1.10;;;6.90;99.90;;;;;;5117338;28;20581;-71
2021/12/08 02:06:03;;;;;;;3.00;1.15;;;6.80;99.90;;;;;;5117589;28;20133;-71
2021/12/08 02:08:29;;;;;;;3.03;1.05;;;6.80;99.90;;;;;;5117394;28;20507;-71
2021/12/08 02:11:07;;;;;;;2.33;1.60;;;6.80;99.90;;;;;;5117513;28;20120;-71
2021/12/08 02:13:38;;;;;;;4.05;1.50;;;6.80;99.90;;;;;;5117797;28;20032;-71
2021/12/08 02:16:08;;;;;;;4.28;1.40;;;6.90;99.90;;;;;;5117409;28;20051;-71
2021/12/08 02:18:35;;;;;;;5.10;1.13;;;6.90;99.90;;;;;;5117157;28;20510;-71
2021/12/08 02:21:04;;;;;;;3.05;1.00;;;6.90;99.90;;;;;;5117347;28;20261;-71
2021/12/08 02:23:31;;;;;;;1.70;1.08;;;6.90;99.90;;;;;;5117328;28;20092;-71
2021/12/08 02:25:59;;;;;;;3.88;1.23;;;6.90;99.90;;;;;;5117633;28;20108;-71
2021/12/08 02:28:25;;;;;;;2.60;1.20;;;6.90;99.90;;;;;;5117173;28;20043;-71
2021/12/08 02:31:01;;;;;;;4.47;1.63;;;7.00;99.90;;;;;;5116917;28;20039;-71
2021/12/08 02:49:54;;;;;;;1.85;1.20;;;6.30;99.90;;;;;;5116585;28;20032;-71
2021/12/08 02:52:20;;;;;;;0.75;0.60;;;6.20;99.90;;;;;;5116861;28;20360;-72
2021/12/08 02:54:48;;;;;;;3.03;0.90;;;6.20;99.90;;;;;;5116459;28;20096;-71
2021/12/08 02:57:16;;;;;;;2.47;0.73;;;6.20;99.90;;;;;;5116835;28;20562;-71
2021/12/08 02:59:44;;;;;;;2.05;0.95;;;6.20;99.90;;;;;;5116926;28;20043;-71
2021/12/08 03:02:10;;;;;;;1.80;0.93;;;6.20;99.90;;;;;;5116634;28;20058;-72
2021/12/08 03:04:36;;;;;;;2.13;0.65;;;6.10;99.90;;;;;;5116134;28;20032;-72
2021/12/08 03:07:04;;;;;;;2.75;0.70;;;6.20;99.90;;;;;;5116586;28;20039;-72
2021/12/08 03:09:30;;;;;;;0.80;0.50;;;6.20;99.90;;;;;;5116587;28;20509;-71
2021/12/08 03:11:58;;;;;;;2.47;0.60;;;6.20;99.90;;;;;;5116470;28;20040;-71
2021/12/08 03:14:25;;;;;;;0.77;0.45;;;6.20;99.90;;;;;;5116316;28;20044;-71
2021/12/08 03:16:57;;;;;;;0.68;0.40;;;6.20;99.90;;;;;;5116062;28;20035;-71
2021/12/08 03:19:25;;;;;;;1.48;0.43;;;6.20;99.90;;;;;;5116524;28;20440;-71
2021/12/08 03:21:59;;;;;;;1.23;0.60;;;6.20;99.90;;;;;;5116186;28;20032;-71
2021/12/08 03:24:35;;;;;;;1.20;0.60;;;6.10;99.90;;;;;;5116773;28;20039;-71
2021/12/08 03:27:11;;;;;;;0.55;0.43;;;6.10;99.90;;;;;;5116252;28;20044;-71
2021/12/08 03:29:48;;;;;;;1.98;0.50;;;6.20;99.90;;;;;;5115725;28;20032;-71
2021/12/08 03:32:17;;;;;;;2.05;0.55;;;6.30;99.90;;;;;;5115469;28;20035;-72
2021/12/08 03:34:51;;;;;;;3.35;0.70;;;6.30;99.90;;;;;;5116259;28;20047;-71
2021/12/08 03:37:27;;;;;;;0.60;0.60;;;6.20;99.90;;;;;;5115596;28;20127;-71
2021/12/08 03:39:54;;;;;;;3.28;0.50;;;6.30;99.90;;;;;;5116002;28;20032;-71
2021/12/08 03:42:23;;;;;;;1.05;0.80;;;6.40;99.90;;;;;;5115772;28;20088;-71
2021/12/08 03:44:51;;;;;;;2.17;1.77;;;6.70;51.70;;;;;;5115412;28;20032;-71
2021/12/08 03:47:25;;;;;;;1.05;0.95;;;6.80;32.60;;;;;;5115394;28;20141;-71
2021/12/08 03:50:01;;;;;;;0.95;0.82;;;6.90;29.10;;;;;;5115124;28;20032;-71
2021/12/08 03:52:27;;;;;;;0.35;0.25;;;6.90;41.70;;;;;;5115401;28;20039;-71
2021/12/08 03:54:54;;;;;;;1.02;0.40;;;6.90;21.60;;;;;;5115340;28;20044;-71
2021/12/08 03:57:20;;;;;;;0.20;0.20;;;6.90;23.30;;;;;;5115600;28;20039;-71
2021/12/08 03:59:46;;;;;;;0.28;0.20;;;6.80;29.00;;;;;;5115581;28;20051;-71
2021/12/08 04:02:17;;;;;;;0.82;0.30;;;6.80;22.00;;;;;;5115481;28;20044;-71
2021/12/08 04:04:47;;;;;;;0.20;0.20;;;6.80;23.20;;;;;;5115105;28;20050;-71
2021/12/08 04:07:14;;;;;;;1.05;0.38;;;6.70;67.20;;;;;;5114475;28;20534;-71
2021/12/08 04:09:43;;;;;;;2.35;0.38;;;6.40;96.20;;;;;;5115750;28;20088;-71
2021/12/08 04:12:19;;;;;;;1.00;0.38;;;6.30;60.40;;;;;;5115253;28;20031;-71
2021/12/08 04:14:54;;;;;;;1.27;0.20;;;6.20;74.30;;;;;;5114341;28;20046;-71
2021/12/08 04:17:43;;;;;;;0.45;0.32;;;6.20;90.50;;;;;;5114739;28;20486;-71
2021/12/08 04:20:43;;;;;;;1.13;0.30;;;6.20;71.10;;;;;;5115071;28;20032;-71
2021/12/08 04:23:12;;;;;;;0.10;0.10;;;6.20;97.10;;;;;;5112148;28;20038;-71
2021/12/08 04:25:40;;;;;;;0.10;0.10;;;6.30;43.30;;;;;;5114881;28;20547;-71
2021/12/08 04:28:13;;;;;;;0.10;0.10;;;6.30;53.70;;;;;;5114905;28;20401;-71
2021/12/08 04:30:52;;;;;;;0.70;0.20;;;6.30;33.30;;;;;;5114996;28;20035;-71
2021/12/08 04:33:18;;;;;;;0.20;0.20;;;6.20;42.20;;;;;;5115102;28;20509;-72
2021/12/08 04:35:47;;;;;;;0.82;0.32;;;6.20;50.00;;;;;;5114806;28;20050;-71
2021/12/08 04:38:30;;;;;;;0.22;0.15;;;6.10;36.50;;;;;;5114279;28;20035;-71
2021/12/08 04:41:04;;;;;;;0.10;0.10;;;6.10;27.30;;;;;;5115043;28;20130;-71
2021/12/08 04:51:57;;;;;;;1.10;0.30;;;5.90;50.90;;;;;;5114223;28;20035;-71
2021/12/08 05:08:45;;;;;;;0.45;0.20;;;5.80;74.20;;;;;;5114644;28;20387;-71
2021/12/08 05:11:19;;;;;;;1.95;0.22;;;5.90;56.80;;;;;;5109153;28;20039;-71
2021/12/08 05:13:50;;;;;;;0.15;0.15;;;5.80;69.60;;;;;;5094412;28;20074;-71
2021/12/08 05:16:17;;;;;;;0.20;0.20;;;5.80;45.20;;;;;;5100276;28;20081;-71
2021/12/08 05:18:48;;;;;;;0.10;0.10;;;5.80;29.40;;;;;;5114126;28;20040;-71
2021/12/08 05:21:17;;;;;;;0.10;0.10;;;5.70;47.10;;;;;;5114791;28;20093;-71
2021/12/08 05:23:58;;;;;;;0.17;0.10;;;5.70;48.60;;;;;;5113718;28;20039;-71
2021/12/08 05:26:28;;;;;;;;;;;5.60;49.10;;;;;;5116981;28;20054;-71
2021/12/08 05:28:57;;;;;;;0.10;0.10;;;5.60;49.30;;;;;;5117255;28;20002;-71
2021/12/08 05:31:28;;;;;;;2.38;0.15;;;5.60;27.20;;;;;;5116659;28;20123;-71
2021/12/08 05:33:54;;;;;;;0.65;0.30;;;5.70;32.90;;;;;;5107307;28;20035;-70
2021/12/08 05:36:22;;;;;;;1.98;0.30;;;5.60;40.00;;;;;;5118205;28;20486;-71
2021/12/08 05:38:48;;;;;;;0.43;0.30;;;5.50;46.00;;;;;;5118160;28;20148;-71
2021/12/08 05:41:16;;;;;;;0.68;0.25;;;5.50;57.30;;;;;;5117810;28;20039;-71
2021/12/08 05:43:44;;;;;;;2.92;0.73;;;5.50;78.10;;;;;;5117821;28;20036;-71
2021/12/08 05:46:11;;;;;;;1.77;0.38;;;5.40;63.50;;;;;;5117979;28;20044;-71
2021/12/08 05:48:36;;;;;;;1.23;0.40;;;5.30;70.50;;;;;;5118023;28;20130;-71
2021/12/08 05:51:19;;;;;;;0.88;0.20;;;5.40;71.10;;;;;;5117995;28;20067;-70
2021/12/08 05:53:47;;;;;;;1.10;0.45;;;5.30;92.20;;;;;;5117762;28;20063;-70
2021/12/08 05:56:14;;;;;;;2.30;0.40;;;5.30;70.30;;;;;;5117878;28;20207;-71
2021/12/08 05:58:41;;;;;;;1.40;0.35;;;5.30;55.90;;;;;;5118452;28;20530;-71
2021/12/08 06:01:26;;;;;;;1.45;0.40;;;5.30;44.30;;;;;;5117763;28;20039;-71
2021/12/08 06:03:52;;;;;;;0.57;0.30;;;5.30;48.50;;;;;;5117754;28;20027;-71
2021/12/08 06:06:21;;;;;;;0.28;0.20;;;5.30;36.00;;;;;;5117535;28;20104;-71
2021/12/08 06:08:48;;;;;;;1.48;0.32;;;5.50;28.50;;;;;;5117279;28;20028;-71
2021/12/08 06:11:15;;;;;;;0.40;0.20;;;5.40;28.00;;;;;;5117271;28;20044;-71
2021/12/08 06:13:43;;;;;;;0.30;0.20;;;5.50;26.80;;;;;;5117561;28;20023;-71
2021/12/08 06:16:10;;;;;;;0.82;0.30;;;5.40;24.30;;;;;;5117515;28;20483;-71
2021/12/08 06:18:39;;;;;;;0.70;0.22;;;5.40;33.20;;;;;;5117064;28;20520;-71
2021/12/08 06:21:11;;;;;;;0.30;0.30;;;5.30;45.60;;;;;;5117395;28;20092;-71
2021/12/08 06:23:40;;;;;;;1.85;0.45;;;5.30;64.80;;;;;;5117140;28;20044;-71
2021/12/08 06:26:08;;;;;;;1.73;0.30;;;5.20;67.50;;;;;;5116922;28;20037;-71
2021/12/08 06:28:34;;;;;;;0.55;0.30;;;5.20;77.90;;;;;;5116919;28;20039;-71
2021/12/08 06:31:00;;;;;;;1.20;0.45;;;5.30;85.30;;;;;;5116956;28;20118;-71
2021/12/08 06:33:26;;;;;;;1.63;0.65;;;5.20;99.30;;;;;;5116769;28;20071;-71
2021/12/08 06:36:03;;;;;;;1.65;0.45;;;5.30;92.30;;;;;;5117131;28;20589;-71
2021/12/08 06:38:29;;;;;;;2.28;0.60;;;5.30;83.60;;;;;;5116982;28;20081;-71
2021/12/08 06:41:11;;;;;;;1.15;0.40;;;5.30;78.30;;;;;;5116347;28;20036;-71
2021/12/08 06:43:43;;;;;;;1.40;0.70;;;5.40;62.10;;;;;;5116592;28;20036;-71
2021/12/08 06:46:10;;;;;;;2.88;0.50;;;5.40;68.80;;;;;;5116310;28;20048;-71
2021/12/08 06:48:47;;;;;;;0.63;0.40;;;5.40;79.60;;;;;;5116247;28;20126;-71
2021/12/08 06:51:35;;;;;;;1.02;0.43;;;5.40;83.10;;;;;;5116942;28;20398;-71
2021/12/08 06:54:13;;;;;;;1.40;0.68;;;5.50;95.80;;;;;;5116532;28;20061;-71
2021/12/08 06:56:50;;;;;;;1.10;0.47;;;5.40;97.00;;;;;;5116479;28;20065;-71
2021/12/08 06:59:21;;;;;;;2.10;0.82;;;5.50;99.90;;;;;;5116043;28;20364;-71
2021/12/08 07:01:58;;;;;;;;;;;5.60;87.00;;;;;;5115259;28;20036;-71
2021/12/08 07:04:37;;;;;;;1.42;0.88;;;5.60;92.70;;;;;;5116532;28;19919;-71
2021/12/08 07:07:12;;;;;;;4.28;0.63;;;5.60;72.30;;;;;;5116459;28;20079;-71
2021/12/08 07:09:52;;;;;;;1.90;0.45;;;5.70;64.20;;;;;;5116479;28;20066;-71
2021/12/08 07:12:28;;;;;;;1.60;0.50;;;5.80;51.60;;;;;;5116152;28;20039;-71
2021/12/08 07:15:10;;;;;;;2.17;0.60;;;5.80;66.10;;;;;;5116280;28;20265;-71
2021/12/08 07:17:38;;;;;;;3.42;1.00;;;5.90;42.90;;;;;;5115876;28;20501;-71
2021/12/08 07:20:17;;;;;;;2.72;1.08;;;6.00;49.70;;;;;;5116285;28;20561;-71
2021/12/08 07:22:48;;;;;;;2.72;0.98;;;5.90;52.10;;;;;;5115686;28;20521;-71
2021/12/08 07:25:18;;;;;;;0.93;0.57;;;5.80;69.40;;;;;;5115905;28;20027;-71
2021/12/08 07:27:45;;;;;;;0.20;0.20;;;5.80;47.80;;;;;;5115747;28;20047;-71
2021/12/08 07:30:21;;;;;;;0.50;0.40;;;5.80;39.00;;;;;;5115795;28;20044;-71
2021/12/08 07:32:48;;;;;;;1.25;0.40;;;5.80;25.30;;;;;;5115591;28;20043;-71
2021/12/08 07:35:26;;;;;;;0.28;0.28;;;6.00;16.60;;;;;;5115432;28;20128;-70
2021/12/08 07:37:52;;;;;;;0.32;0.28;;;5.90;15.80;;;;;;5115442;28;20102;-70
2021/12/08 07:40:24;;;;;;;0.75;0.40;;;6.00;12.80;;;;;;5115846;28;20055;-71
2021/12/08 07:42:57;;;;;;;0.50;0.32;;;5.90;7.20;;;;;;5115596;28;20487;-71
2021/12/08 07:45:30;;;;;;;0.60;0.40;;;6.10;8.40;;;;;;5114907;28;20092;-71
2021/12/08 07:47:56;;;;;;;0.68;0.50;;;6.00;22.50;;;;;;5114357;28;20040;-71
2021/12/08 07:50:39;;;;;;;0.32;0.32;;;5.90;18.70;;;;;;5115221;28;20043;-71
2021/12/08 07:53:08;;;;;;;0.32;0.20;;;5.90;21.30;;;;;;5114801;28;20525;-71
2021/12/08 07:55:39;;;;;;;2.25;0.65;;;5.90;29.50;;;;;;5113421;28;20055;-71
2021/12/08 07:58:07;;;;;;;0.50;0.50;;;5.90;22.70;;;;;;5113499;28;20046;-70
2021/12/08 08:00:43;;;;;;;0.52;0.30;;;5.80;35.40;;;;;;5113517;28;20040;-69
2021/12/08 08:03:11;;;;;;;0.82;0.40;;;5.80;26.00;;;;;;5114111;28;20035;-71
2021/12/08 08:05:39;;;;;;;1.23;0.65;;;6.00;11.50;;;;;;5115055;28;20049;-71
2021/12/08 08:08:10;;;;;;;1.35;0.50;;;6.20;8.70;;;;;;5114675;28;20051;-71
2021/12/08 08:10:43;;;;;;;0.77;0.40;;;6.20;1.70;;;;;;5115180;28;20061;-71
2021/12/08 08:13:10;;;;;;;1.27;0.60;;;6.20;11.90;;;;;;5114773;28;20524;-71
2021/12/08 08:15:43;;;;;;;0.45;0.45;;;6.20;8.60;;;;;;5113015;28;20067;-71
2021/12/08 08:18:12;;;;;;;0.93;0.63;;;6.30;1.00;;;;;;5110832;28;20308;-71
2021/12/08 08:20:47;;;;;;;1.08;0.55;;;6.20;1.00;;;;;;5113082;28;20036;-71
2021/12/08 08:23:14;;;;;;;0.90;0.50;;;6.20;1.00;;;;;;5114552;28;20043;-71
2021/12/08 08:25:44;;;;;;;2.17;0.68;;;6.00;1.00;;;;;;5114624;28;20067;-71
2021/12/08 08:28:10;;;;;;;4.68;0.73;;;6.00;1.00;;;;;;5114800;28;20558;-71
2021/12/08 08:31:03;;;;;;;4.63;1.15;;;6.00;1.00;;;;;;5113995;28;20108;-71
2021/12/08 08:33:31;;;;;;;2.78;0.70;;;6.00;1.00;;;;;;5100404;28;20044;-71
2021/12/08 08:36:04;;;;;;;4.43;0.93;;;6.10;1.00;;;;;;5113522;28;20524;-71
2021/12/08 08:38:36;;;;;;;7.25;2.17;;;6.20;1.00;;;;;;5113997;28;20035;-71
2021/12/08 08:41:12;;;;;;;4.65;1.42;;;6.30;1.00;;;;;;5111417;28;20046;-71
2021/12/08 08:43:38;;;;;;;4.10;1.67;;;6.40;1.00;;;;;;5112741;28;20048;-70
2021/12/08 08:46:09;;;;;;;4.43;1.63;;;6.30;7.90;;;;;;5111637;28;20032;-70
2021/12/08 08:49:15;;;;;;;1.92;0.60;;;6.20;7.20;;;;;;5112899;28;20124;-70
2021/12/08 08:51:47;;;;;;;3.15;1.20;;;6.20;9.20;;;;;;5079034;28;20088;-71
2021/12/08 08:54:21;;;;;;;2.40;0.70;;;6.20;8.70;;;;;;5111226;28;20031;-70
2021/12/08 08:56:56;;;;;;;1.63;0.80;;;6.20;1.00;;;;;;5112901;28;20040;-70
2021/12/08 08:59:26;;;;;;;1.35;0.70;;;6.20;1.00;;;;;;5114048;28;20035;-70
2021/12/08 09:01:55;;;;;;;3.45;1.00;;;6.20;1.00;;;;;;5099926;28;20039;-71
2021/12/08 09:04:37;;;;;;;2.05;0.70;;;6.20;1.00;;;;;;5107477;28;20507;-71
2021/12/08 09:07:07;;;;;;;2.75;1.08;;;6.30;1.00;;;;;;5103504;28;20082;-71
2021/12/08 09:09:40;;;;;;;1.70;0.65;;;6.30;1.00;;;;;;5102046;28;20063;-70
2021/12/08 09:12:22;;;;;;;1.70;0.75;;;6.40;1.00;;;;;;5105464;28;20040;-76
2021/12/08 09:14:55;;;;;;;1.65;0.60;;;6.30;1.00;;;;;;5107859;28;20023;-75
2021/12/08 09:17:33;;;;;;;2.05;0.93;;;6.30;1.00;;;;;;5103202;28;20055;-77
2021/12/08 09:20:13;;;;;;;3.35;0.70;;;6.30;1.00;;;;;;5103971;28;20062;-76
2021/12/08 09:22:45;;;;;;;0.93;0.50;;;6.30;1.00;;;;;;5106206;28;20047;-78
2021/12/08 09:25:25;;;;;;;0.98;0.60;;;6.30;1.00;;;;;;5102648;28;20048;-77
2021/12/08 09:27:55;;;;;;;1.20;0.77;;;6.20;1.00;;;;;;5113026;28;20047;-72
2021/12/08 09:30:48;;;;;;;1.23;0.50;;;6.20;1.00;;;;;;5111677;28;20042;-74
2021/12/08 09:33:25;;;;;;;1.05;0.95;;;6.20;1.00;;;;;;5107504;28;20047;-75
2021/12/08 09:36:01;;;;;;;0.40;0.20;;;6.20;1.00;;;;;;5110950;28;20035;-72
2021/12/08 09:38:36;;;;;;;2.97;0.40;;;6.30;1.00;;;;;;5098284;28;20379;-74
2021/12/08 09:41:08;;;;;;;1.48;0.70;;;6.30;1.00;;;;;;5111823;28;20122;-73
2021/12/08 09:43:44;;;;;;;1.17;0.57;;;6.30;1.00;;;;;;5115596;28;20039;-73
2021/12/08 09:46:20;;;;;;;0.80;0.60;;;6.20;1.00;;;;;;5116048;28;20042;-73
2021/12/08 09:48:47;;;;;;;1.90;0.65;;;6.30;1.00;;;;;;5113612;28;20124;-73
2021/12/08 09:51:17;;;;;;;1.05;0.47;;;6.30;1.00;;;;;;5112086;28;20536;-70
2021/12/08 09:53:45;;;;;;;3.92;0.88;;;6.40;1.00;;;;;;5115244;28;20043;-72
2021/12/08 09:56:12;;;;;;;0.30;0.30;;;6.40;1.00;;;;;;5115431;28;20046;-71
2021/12/08 09:58:39;;;;;;;0.80;0.75;;;6.20;3.30;;;;;;5115503;28;20078;-73
2021/12/08 10:01:09;;;;;;;1.55;0.52;;;6.30;3.80;;;;;;5112319;28;20088;-73
2021/12/08 10:03:36;;;;;;;1.60;0.88;;;6.50;1.00;;;;;;5113242;28;20126;-69
2021/12/08 10:06:02;;;;;;;1.85;1.10;;;6.50;3.90;;;;;;5113198;28;20051;-71
2021/12/08 10:08:29;;;;;;;0.85;0.70;;;6.50;4.90;;;;;;5114312;28;20073;-71
2021/12/08 10:10:56;;;;;;;1.33;0.85;;;6.50;23.40;;;;;;5113387;28;20535;-70
2021/12/08 10:13:22;;;;;;;0.77;0.70;;;6.30;1.00;;;;;;5113890;28;20031;-71
2021/12/08 10:15:48;;;;;;;3.00;0.70;;;6.70;1.60;;;;;;5113059;28;20043;-68
2021/12/08 10:18:15;;;;;;;0.85;0.40;;;6.80;1.00;;;;;;5112193;28;20047;-70
2021/12/08 10:20:52;;;;;;;1.30;1.10;;;6.60;1.00;;;;;;5112193;28;20075;-71
2021/12/08 10:23:30;;;;;;;1.08;0.70;;;6.70;1.00;;;;;;5113477;28;20047;-72
2021/12/08 10:25:56;;;;;;;0.57;0.50;;;6.50;1.90;;;;;;5114560;28;20057;-73
2021/12/08 10:28:28;;;;;;;0.30;0.30;;;6.40;1.20;;;;;;5114103;28;20035;-72
2021/12/08 10:31:04;;;;;;;0.95;0.20;;;6.30;1.00;;;;;;5110770;28;20113;-73
2021/12/08 10:34:01;;;;;;;1.67;0.82;;;6.30;1.00;;;;;;5113863;28;20035;-72
2021/12/08 10:36:47;;;;;;;0.98;0.65;;;6.00;1.00;;;;;;5113512;28;20123;-72
2021/12/08 10:39:18;;;;;;;0.20;0.20;;;6.20;7.70;;;;;;5112478;28;20047;-75
2021/12/08 10:41:43;;;;;;;;;;;6.10;1.00;;;;;;5112260;28;20138;-70
2021/12/08 10:44:09;;;;;;;0.20;0.20;;;6.00;5.40;;;;;;5114780;28;20029;-70
2021/12/08 10:46:38;;;;;;;0.17;0.17;;;5.90;1.00;;;;;;5113518;27;20049;-71
2021/12/08 10:49:16;;;;;;;0.20;0.20;;;6.00;2.40;;;;;;5111684;28;20039;-70
2021/12/08 10:54:33;;;;;;;0.47;0.28;;;6.10;1.00;;;;;;5111218;28;20047;-70
2021/12/08 10:57:03;;;;;;;0.32;0.28;;;6.20;1.00;;;;;;5110388;28;20131;-71
2021/12/08 11:00:00;;;;;;;0.68;0.55;;;6.20;1.00;;;;;;5114549;28;20063;-71
2021/12/08 11:03:07;;;;;;;0.75;0.60;;;6.10;1.00;;;;;;5112694;28;20062;-72
2021/12/08 11:05:39;;;;;;;0.32;0.30;;;6.10;1.00;;;;;;5050390;28;20112;-71
2021/12/08 11:08:15;;;;;;;0.57;0.57;;;6.10;4.20;;;;;;5106193;27;20051;-70
2021/12/08 11:11:01;;;;;;;0.60;0.40;;;6.00;1.00;;;;;;5112331;28;20039;-74
2021/12/08 11:13:31;;;;;;;0.40;0.30;;;6.00;1.00;;;;;;5112978;28;20059;-74
2021/12/08 11:16:05;;;;;;;1.27;0.30;;;6.30;1.00;;;;;;5113361;28;20043;-73
2021/12/08 11:18:32;;;;;;;0.70;0.40;;;6.40;1.00;;;;;;5114077;28;20562;-73
2021/12/08 11:21:18;;;;;;;0.43;0.38;;;6.30;1.00;;;;;;5107845;28;20451;-74
2021/12/08 11:23:46;;;;;;;0.43;0.32;;;6.20;1.00;;;;;;5111286;28;20130;-74
2021/12/08 11:26:19;;;;;;;0.63;0.30;;;6.30;1.00;;;;;;5113251;28;20036;-73
2021/12/08 11:29:03;;;;;;;1.10;0.43;;;6.20;1.00;;;;;;5112169;28;20044;-75
2021/12/08 11:31:39;;;;;;;0.60;0.30;;;6.10;5.00;;;;;;5112465;28;20084;-72
2021/12/08 11:34:15;;;;;;;0.60;0.35;;;6.00;1.00;;;;;;5112144;28;20054;-73
2021/12/08 11:36:42;;;;;;;0.10;0.10;;;6.10;5.30;;;;;;5095829;28;20422;-73
2021/12/08 11:39:16;;;;;;;0.25;0.25;;;6.10;1.00;;;;;;5100812;28;20043;-76
2021/12/08 11:41:46;;;;;;;0.20;0.20;;;6.10;1.00;;;;;;5110121;28;20036;-72
2021/12/08 11:44:22;;;;;;;0.30;0.30;;;6.00;1.90;;;;;;5113561;28;20031;-72
2021/12/08 11:47:06;;;;;;;0.35;0.35;;;6.10;1.00;;;;;;5112276;28;20039;-72
2021/12/08 11:49:33;;;;;;;0.60;0.60;;;6.20;1.00;;;;;;5112921;28;20156;-71
2021/12/08 11:52:12;;;;;;;1.88;0.60;;;6.00;1.00;;;;;;5110711;28;20090;-71
2021/12/08 11:54:42;;;;;;;0.40;0.40;;;6.10;1.00;;;;;;5110779;28;20043;-71
2021/12/08 11:57:33;;;;;;;0.93;0.90;;;6.20;1.00;;;;;;5104168;28;20092;-71
2021/12/08 12:00:11;;;;;;;0.65;0.50;;;6.10;1.00;;;;;;5111157;28;20066;-70
2021/12/08 12:02:46;;;;;;;0.77;0.40;;;6.00;7.10;;;;;;5110071;28;20045;-71
2021/12/08 12:05:15;;;;;;;0.55;0.50;;;6.00;1.00;;;;;;5110789;28;20047;-70
2021/12/08 12:07:41;;;;;;;0.35;0.35;;;6.10;1.00;;;;;;5111421;28;20070;-71
2021/12/08 12:10:11;;;;;;;0.40;0.32;;;6.10;1.00;;;;;;5112145;28;20109;-69
2021/12/08 12:12:39;;;;;;;1.80;0.57;;;6.30;1.00;;;;;;5112223;28;20035;-78
2021/12/08 12:15:07;;;;;;;0.93;0.50;;;6.30;1.00;;;;;;5104461;28;20559;-70
2021/12/08 12:17:33;;;;;;;3.25;1.95;;;6.40;1.00;;;;;;5105175;28;20070;-70
2021/12/08 12:20:31;;;;;;;1.75;1.00;;;6.40;1.00;;;;;;5096368;28;20487;-69
2021/12/08 12:23:47;;;;;;;1.67;0.57;;;6.40;1.00;;;;;;5098826;28;20551;-69
2021/12/08 12:26:31;;;;;;;1.45;0.82;;;6.50;1.00;;;;;;5096139;28;20097;-70
2021/12/08 12:29:12;;;;;;;0.93;0.50;;;6.50;1.00;;;;;;5101010;28;20040;-69
2021/12/08 12:31:51;;;;;;;3.08;0.60;;;6.50;1.00;;;;;;5103301;28;20051;-70
2021/12/08 12:34:35;;;;;;;0.77;0.40;;;6.20;1.00;;;;;;5100164;28;20078;-70
2021/12/08 12:37:17;;;;;;;1.30;0.30;;;6.20;1.00;;;;;;5109045;28;20075;-70
2021/12/08 12:40:07;;;;;;;1.92;0.50;;;6.00;1.00;;;;;;5106691;28;20604;-70
2021/12/08 12:42:55;;;;;;;0.40;0.30;;;5.90;1.00;;;;;;5113054;28;20039;-70
2021/12/08 12:45:27;;;;;;;0.73;0.63;;;6.10;1.00;;;;;;5112539;28;20108;-70
2021/12/08 12:48:09;;;;;;;0.30;0.30;;;6.20;1.00;;;;;;5103715;28;20506;-70
2021/12/08 12:50:58;;;;;;;1.30;0.30;;;6.10;1.00;;;;;;5104823;28;20040;-71
2021/12/08 12:53:46;;;;;;;0.90;0.50;;;6.00;1.00;;;;;;5117414;28;20138;-76
2021/12/08 12:56:16;;;;;;;0.57;0.50;;;6.00;1.00;;;;;;5115513;28;20051;-75
2021/12/08 12:58:53;;;;;;;0.40;0.40;;;5.90;1.10;;;;;;5109740;28;20390;-75
2021/12/08 13:01:27;;;;;;;0.40;0.30;;;5.90;1.00;;;;;;5114202;28;20040;-75
2021/12/08 13:04:07;;;;;;;0.50;0.30;;;6.00;1.00;;;;;;5116313;28;20078;-76
2021/12/08 13:06:58;;;;;;;1.00;0.50;;;6.00;1.00;;;;;;5115427;28;20051;-72
2021/12/08 13:09:46;;;;;;;1.27;0.52;;;6.10;1.00;;;;;;5105669;28;20150;-72
2021/12/08 13:12:24;;;;;;;0.93;0.50;;;6.00;1.00;;;;;;5099245;28;20097;-72
2021/12/08 13:15:13;;;;;;;0.30;0.25;;;6.00;1.00;;;;;;5112207;28;20112;-72
2021/12/08 13:18:02;;;;;;;2.47;0.45;;;6.10;1.00;;;;;;5109486;28;20047;-72
2021/12/08 13:20:30;;;;;;;0.40;0.40;;;6.00;1.00;;;;;;5096761;28;20044;-72
2021/12/08 13:23:27;;;;;;;1.30;0.40;;;6.00;1.00;;;;;;5111236;28;20031;-71
2021/12/08 13:25:59;;;;;;;0.35;0.30;;;6.10;1.00;;;;;;5085227;28;20073;-71
2021/12/08 13:31:30;;;;;;;0.82;0.40;;;6.00;1.00;;;;;;5098926;28;20035;-71
2021/12/08 13:34:10;;;;;;;0.98;0.70;;;6.00;1.00;;;;;;5104098;28;20032;-71
2021/12/08 13:36:45;;;;;;;0.77;0.40;;;6.00;1.00;;;;;;5104054;28;20080;-69
2021/12/08 13:39:27;;;;;;;1.25;0.98;;;6.00;1.00;;;;;;5109076;28;20043;-69
2021/12/08 13:41:59;;;;;;;1.30;0.60;;;5.90;1.00;;;;;;5102285;28;20039;-70
2021/12/08 13:44:32;;;;;;;1.25;0.60;;;6.00;1.00;;;;;;5104647;28;20062;-70
2021/12/08 13:46:58;;;;;;;1.65;0.70;;;6.00;1.00;;;;;;5096286;28;20056;-69
2021/12/08 13:49:28;;;;;;;1.10;0.80;;;6.00;1.00;;;;;;5099726;28;20494;-71
2021/12/08 13:52:06;;;;;;;1.67;0.70;;;5.90;1.00;;;;;;5114771;28;20505;-70
2021/12/08 13:54:37;;;;;;;0.40;0.40;;;5.90;1.00;;;;;;5115054;28;20398;-71
2021/12/08 13:57:25;;;;;;;0.68;0.40;;;5.80;1.00;;;;;;5111894;28;20052;-71
2021/12/08 14:00:02;;;;;;;1.05;0.55;;;5.80;1.00;;;;;;5115406;28;20077;-69
2021/12/08 14:02:36;;;;;;;0.65;0.50;;;5.90;1.00;;;;;;5113748;28;20179;-70
2021/12/08 14:05:14;;;;;;;0.45;0.40;;;5.90;1.00;;;;;;5115326;28;20052;-70
2021/12/08 14:07:50;;;;;;;0.75;0.40;;;5.90;1.00;;;;;;5109567;28;20505;-71
2021/12/08 14:10:20;;;;;;;1.15;0.60;;;6.10;1.00;;;;;;5115053;28;20117;-70
2021/12/08 14:13:00;;;;;;;1.45;0.77;;;6.00;1.00;;;;;;5115016;28;20047;-70
2021/12/08 14:15:32;;;;;;;2.13;1.00;;;6.00;1.00;;;;;;5113648;28;20032;-71
2021/12/08 14:18:24;;;;;;;1.83;0.40;;;5.90;1.00;;;;;;5114921;28;20132;-70
2021/12/08 14:21:06;;;;;;;2.00;0.50;;;5.80;1.00;;;;;;5110879;28;20036;-71